createdAt,value
2017-05-22T00:00:10.390Z,1010.55
2017-05-22T00:01:24.006Z,1010.52
2017-05-22T00:02:37.881Z,1010.49
2017-05-22T00:03:52.507Z,1010.51
2017-05-22T00:05:06.414Z,1010.47
2017-05-22T00:06:20.300Z,1010.48
2017-05-22T00:07:34.191Z,1010.41
2017-05-22T00:08:48.506Z,1010.42
2017-05-22T00:10:02.819Z,1010.42
2017-05-22T00:11:16.706Z,1010.33
2017-05-22T00:12:30.285Z,1010.35
2017-05-22T00:13:44.239Z,1010.34
2017-05-22T00:14:57.937Z,1010.32
2017-05-22T00:16:12.426Z,1010.3
2017-05-22T00:17:26.322Z,1010.3
2017-05-22T00:18:39.911Z,1010.29
2017-05-22T00:19:53.835Z,1010.32
2017-05-22T00:21:08.071Z,1010.34
2017-05-22T00:22:22.252Z,1010.34
2017-05-22T00:23:36.289Z,1010.34
2017-05-22T00:24:49.934Z,1010.31
2017-05-22T00:26:03.872Z,1010.29
2017-05-22T00:27:17.847Z,1010.25
2017-05-22T00:28:31.679Z,1010.27
2017-05-22T00:29:45.245Z,1010.27
2017-05-22T00:30:59.229Z,1010.28
2017-05-22T00:32:13.105Z,1010.24
2017-05-22T00:33:27.004Z,1010.25
2017-05-22T00:34:41.220Z,1010.28
2017-05-22T00:35:54.743Z,1010.26
2017-05-22T00:38:36.741Z,1010.21
2017-05-22T00:39:50.320Z,1010.15
2017-05-22T00:41:04.171Z,1010.2
2017-05-22T00:42:17.862Z,1010.22
2017-05-22T00:43:31.779Z,1010.19
2017-05-22T00:44:45.358Z,1010.18
2017-05-22T00:45:58.923Z,1010.21
2017-05-22T00:47:12.876Z,1010.24
2017-05-22T00:48:26.497Z,1010.22
2017-05-22T00:49:40.057Z,1010.25
2017-05-22T00:50:53.681Z,1010.17
2017-05-22T00:52:07.225Z,1010.22
2017-05-22T00:53:21.491Z,1010.18
2017-05-22T00:54:35.723Z,1010.18
2017-05-22T00:55:49.675Z,1010.14
2017-05-22T00:57:03.259Z,1010.16
2017-05-22T00:58:17.142Z,1010.14
2017-05-22T00:59:31.006Z,1010.17
2017-05-22T01:00:44.590Z,1010.13
2017-05-22T01:01:58.811Z,1010.13
2017-05-22T01:03:12.366Z,1010.13
2017-05-22T01:04:26.702Z,1010.16
2017-05-22T01:05:40.687Z,1010.12
2017-05-22T01:06:54.407Z,1010.12
2017-05-22T01:08:07.986Z,1010.09
2017-05-22T01:09:21.688Z,1010.13
2017-05-22T01:10:35.607Z,1010.14
2017-05-22T01:11:49.804Z,1010.09
2017-05-22T01:13:03.494Z,1010.14
2017-05-22T01:14:17.074Z,1010.09
2017-05-22T01:15:30.610Z,1010.15
2017-05-22T01:16:44.225Z,1010.09
2017-05-22T01:17:58.463Z,1010.05
2017-05-22T01:19:12.078Z,1010.08
2017-05-22T01:20:25.711Z,1010.04
2017-05-22T01:21:39.720Z,1010.03
2017-05-22T01:22:53.253Z,1010.06
2017-05-22T01:24:07.209Z,1010.01
2017-05-22T01:25:20.795Z,1010.05
2017-05-22T01:26:34.375Z,1010.03
2017-05-22T01:27:48.624Z,1010.02
2017-05-22T01:29:02.680Z,1010.02
2017-05-22T01:30:16.613Z,1010.01
2017-05-22T01:31:30.511Z,1010
2017-05-22T01:32:44.130Z,1010
2017-05-22T01:33:58.078Z,1010
2017-05-22T01:35:11.943Z,1009.98
2017-05-22T01:36:26.168Z,1009.98
2017-05-22T01:37:39.707Z,1009.99
2017-05-22T01:38:53.290Z,1009.98
2017-05-22T01:40:07.292Z,1009.97
2017-05-22T01:41:21.208Z,1009.98
2017-05-22T01:42:35.189Z,1009.95
2017-05-22T01:43:48.769Z,1009.97
2017-05-22T01:45:02.683Z,1009.93
2017-05-22T01:46:16.369Z,1009.94
2017-05-22T01:47:30.342Z,1009.91
2017-05-22T01:48:44.216Z,1009.89
2017-05-22T01:49:57.988Z,1009.89
2017-05-22T01:51:11.835Z,1009.92
2017-05-22T01:52:25.435Z,1009.88
2017-05-22T01:53:39.289Z,1009.9
2017-05-22T01:54:53.216Z,1009.91
2017-05-22T01:56:07.257Z,1009.88
2017-05-22T01:57:21.298Z,1009.83
2017-05-22T01:58:34.904Z,1009.83
2017-05-22T01:59:48.479Z,1009.84
2017-05-22T02:01:02.703Z,1009.77
2017-05-22T02:02:16.419Z,1009.81
2017-05-22T02:03:30.335Z,1009.78
2017-05-22T02:04:44.546Z,1009.78
2017-05-22T02:05:58.169Z,1009.74
2017-05-22T02:07:12.412Z,1009.73
2017-05-22T02:08:26.269Z,1009.74
2017-05-22T02:09:40.126Z,1009.71
2017-05-22T02:10:53.761Z,1009.73
2017-05-22T02:12:07.714Z,1009.72
2017-05-22T02:13:21.633Z,1009.68
2017-05-22T02:14:35.295Z,1009.72
2017-05-22T02:15:48.855Z,1009.73
2017-05-22T02:17:02.415Z,1009.67
2017-05-22T02:18:16.039Z,1009.73
2017-05-22T02:19:30.927Z,1009.71
2017-05-22T02:20:44.497Z,1009.7
2017-05-22T02:21:58.150Z,1009.69
2017-05-22T02:23:18.766Z,1009.67
2017-05-22T02:24:32.718Z,1009.66
2017-05-22T02:25:47.260Z,1009.66
2017-05-22T02:27:00.877Z,1009.71
2017-05-22T02:28:14.536Z,1009.68
2017-05-22T02:29:28.095Z,1009.69
2017-05-22T02:30:42.038Z,1009.63
2017-05-22T02:31:56.165Z,1009.65
2017-05-22T02:33:10.082Z,1009.65
2017-05-22T02:34:24.469Z,1009.71
2017-05-22T02:35:38.677Z,1009.65
2017-05-22T02:36:52.234Z,1009.65
2017-05-22T02:38:06.434Z,1009.66
2017-05-22T02:39:20.071Z,1009.64
2017-05-22T02:40:33.821Z,1009.67
2017-05-22T02:41:47.447Z,1009.64
2017-05-22T02:43:01.088Z,1009.64
2017-05-22T02:44:14.966Z,1009.62
2017-05-22T02:45:28.546Z,1009.59
2017-05-22T02:46:42.244Z,1009.61
2017-05-22T02:47:56.113Z,1009.62
2017-05-22T02:49:09.752Z,1009.64
2017-05-22T02:50:24.362Z,1009.61
2017-05-22T02:51:38.241Z,1009.6
2017-05-22T02:52:52.175Z,1009.58
2017-05-22T02:54:06.408Z,1009.56
2017-05-22T02:55:20.326Z,1009.58
2017-05-22T02:56:34.389Z,1009.61
2017-05-22T02:57:48.385Z,1009.6
2017-05-22T02:59:02.323Z,1009.63
2017-05-22T03:00:16.257Z,1009.62
2017-05-22T03:01:29.919Z,1009.64
2017-05-22T03:02:43.917Z,1009.61
2017-05-22T03:03:57.921Z,1009.62
2017-05-22T03:05:11.550Z,1009.66
2017-05-22T03:06:25.330Z,1009.63
2017-05-22T03:07:39.153Z,1009.68
2017-05-22T03:08:53.039Z,1009.7
2017-05-22T03:10:07.658Z,1009.62
2017-05-22T03:11:21.963Z,1009.62
2017-05-22T03:12:35.895Z,1009.67
2017-05-22T03:13:50.143Z,1009.65
2017-05-22T03:15:04.208Z,1009.6
2017-05-22T03:16:18.095Z,1009.61
2017-05-22T03:17:31.652Z,1009.66
2017-05-22T03:18:45.381Z,1009.61
2017-05-22T03:19:59.000Z,1009.63
2017-05-22T03:21:13.905Z,1009.63
2017-05-22T03:22:27.491Z,1009.6
2017-05-22T03:23:41.387Z,1009.64
2017-05-22T03:24:55.433Z,1009.59
2017-05-22T03:26:09.385Z,1009.6
2017-05-22T03:27:23.649Z,1009.66
2017-05-22T03:28:37.224Z,1009.6
2017-05-22T03:29:50.929Z,1009.57
2017-05-22T03:31:04.626Z,1009.57
2017-05-22T03:32:18.302Z,1009.6
2017-05-22T03:33:32.261Z,1009.58
2017-05-22T03:34:45.837Z,1009.55
2017-05-22T03:35:59.446Z,1009.56
2017-05-22T03:37:13.038Z,1009.62
2017-05-22T03:38:26.587Z,1009.57
2017-05-22T03:39:40.690Z,1009.58
2017-05-22T03:40:54.322Z,1009.56
2017-05-22T03:42:07.935Z,1009.5
2017-05-22T03:43:21.544Z,1009.51
2017-05-22T03:44:35.505Z,1009.56
2017-05-22T03:45:50.103Z,1009.56
2017-05-22T03:47:03.835Z,1009.55
2017-05-22T03:48:17.697Z,1009.59
2017-05-22T03:49:31.612Z,1009.59
2017-05-22T03:50:45.176Z,1009.55
2017-05-22T03:51:59.106Z,1009.5
2017-05-22T03:53:13.019Z,1009.51
2017-05-22T03:54:26.957Z,1009.57
2017-05-22T03:55:40.837Z,1009.56
2017-05-22T03:56:54.493Z,1009.55
2017-05-22T03:58:09.091Z,1009.52
2017-05-22T03:59:23.015Z,1009.51
2017-05-22T04:00:36.601Z,1009.58
2017-05-22T04:01:50.326Z,1009.54
2017-05-22T04:03:03.907Z,1009.55
2017-05-22T04:04:17.811Z,1009.53
2017-05-22T04:05:31.764Z,1009.49
2017-05-22T04:06:46.120Z,1009.56
2017-05-22T04:07:59.798Z,1009.55
2017-05-22T04:09:14.193Z,1009.55
2017-05-22T04:10:28.421Z,1009.57
2017-05-22T04:11:42.105Z,1009.54
2017-05-22T04:12:56.294Z,1009.58
2017-05-22T04:14:09.895Z,1009.63
2017-05-22T04:15:23.528Z,1009.58
2017-05-22T04:16:37.399Z,1009.59
2017-05-22T04:17:51.124Z,1009.52
2017-05-22T04:19:05.310Z,1009.55
2017-05-22T04:20:19.239Z,1009.55
2017-05-22T04:21:33.326Z,1009.54
2017-05-22T04:22:47.498Z,1009.52
2017-05-22T04:24:01.543Z,1009.49
2017-05-22T04:25:15.753Z,1009.5
2017-05-22T04:26:32.392Z,1009.49
2017-05-22T04:27:48.088Z,1009.53
2017-05-22T04:29:02.981Z,1009.49
2017-05-22T04:30:16.912Z,1009.52
2017-05-22T04:31:30.996Z,1009.51
2017-05-22T04:32:45.282Z,1009.52
2017-05-22T04:33:59.498Z,1009.49
2017-05-22T04:35:14.759Z,1009.51
2017-05-22T04:36:28.526Z,1009.5
2017-05-22T04:37:42.507Z,1009.52
2017-05-22T04:38:56.503Z,1009.47
2017-05-22T04:40:10.808Z,1009.49
2017-05-22T04:41:24.424Z,1009.54
2017-05-22T04:42:38.014Z,1009.56
2017-05-22T04:43:51.663Z,1009.55
2017-05-22T04:45:05.627Z,1009.58
2017-05-22T04:46:19.273Z,1009.54
2017-05-22T04:47:33.165Z,1009.56
2017-05-22T04:48:46.779Z,1009.51
2017-05-22T04:50:00.406Z,1009.51
2017-05-22T04:51:14.016Z,1009.53
2017-05-22T04:52:27.682Z,1009.55
2017-05-22T04:53:41.589Z,1009.52
2017-05-22T04:54:55.266Z,1009.58
2017-05-22T04:56:09.903Z,1009.5
2017-05-22T04:57:23.849Z,1009.55
2017-05-22T04:58:37.802Z,1009.49
2017-05-22T04:59:51.857Z,1009.49
2017-05-22T05:01:06.911Z,1009.49
2017-05-22T05:02:20.909Z,1009.5
2017-05-22T05:03:35.171Z,1009.47
2017-05-22T05:04:49.226Z,1009.48
2017-05-22T05:06:03.322Z,1009.5
2017-05-22T05:07:17.127Z,1009.5
2017-05-22T05:08:31.078Z,1009.61
2017-05-22T05:09:44.653Z,1009.56
2017-05-22T05:10:58.314Z,1009.62
2017-05-22T05:12:12.222Z,1009.7
2017-05-22T05:13:25.862Z,1009.65
2017-05-22T05:14:39.473Z,1009.61
2017-05-22T05:15:53.223Z,1009.65
2017-05-22T05:17:07.242Z,1009.67
2017-05-22T05:18:21.160Z,1009.66
2017-05-22T05:19:35.121Z,1009.73
2017-05-22T05:20:49.062Z,1009.7
2017-05-22T05:22:02.686Z,1009.74
2017-05-22T05:23:16.729Z,1009.71
2017-05-22T05:24:31.628Z,1009.61
2017-05-22T05:25:45.246Z,1009.59
2017-05-22T05:26:59.044Z,1009.57
2017-05-22T05:28:12.651Z,1009.56
2017-05-22T05:29:26.714Z,1009.55
2017-05-22T05:30:40.632Z,1009.52
2017-05-22T05:31:54.991Z,1009.52
2017-05-22T05:33:08.596Z,1009.5
2017-05-22T05:34:22.193Z,1009.5
2017-05-22T05:35:35.860Z,1009.53
2017-05-22T05:36:49.856Z,1009.52
2017-05-22T05:38:03.546Z,1009.49
2017-05-22T05:39:17.946Z,1009.54
2017-05-22T05:40:32.234Z,1009.51
2017-05-22T05:41:45.838Z,1009.51
2017-05-22T05:42:59.912Z,1009.53
2017-05-22T05:44:14.250Z,1009.55
2017-05-22T05:45:28.276Z,1009.55
2017-05-22T05:46:42.379Z,1009.55
2017-05-22T05:47:56.020Z,1009.57
2017-05-22T05:49:10.392Z,1009.6
2017-05-22T05:50:24.435Z,1009.57
2017-05-22T05:51:38.237Z,1009.57
2017-05-22T05:52:52.170Z,1009.58
2017-05-22T05:54:05.784Z,1009.59
2017-05-22T05:55:19.730Z,1009.59
2017-05-22T05:56:33.334Z,1009.54
2017-05-22T05:57:47.437Z,1009.53
2017-05-22T05:59:01.502Z,1009.54
2017-05-22T06:00:15.133Z,1009.55
2017-05-22T06:01:29.211Z,1009.51
2017-05-22T06:02:43.611Z,1009.52
2017-05-22T06:03:57.289Z,1009.51
2017-05-22T06:05:11.093Z,1009.47
2017-05-22T06:06:25.402Z,1009.45
2017-05-22T06:07:39.699Z,1009.47
2017-05-22T06:08:53.689Z,1009.49
2017-05-22T06:10:07.405Z,1009.46
2017-05-22T06:11:21.834Z,1009.5
2017-05-22T06:12:35.546Z,1009.44
2017-05-22T06:13:49.512Z,1009.45
2017-05-22T06:15:03.352Z,1009.48
2017-05-22T06:16:17.055Z,1009.48
2017-05-22T06:17:30.699Z,1009.49
2017-05-22T06:18:44.740Z,1009.45
2017-05-22T06:19:58.855Z,1009.48
2017-05-22T06:21:12.625Z,1009.49
2017-05-22T06:22:26.217Z,1009.48
2017-05-22T06:23:39.983Z,1009.49
2017-05-22T06:24:54.261Z,1009.51
2017-05-22T06:26:08.795Z,1009.52
2017-05-22T06:27:22.746Z,1009.57
2017-05-22T06:28:36.489Z,1009.65
2017-05-22T06:29:50.666Z,1009.59
2017-05-22T06:31:04.728Z,1009.57
2017-05-22T06:32:18.797Z,1009.59
2017-05-22T06:33:32.579Z,1009.53
2017-05-22T06:34:46.725Z,1009.58
2017-05-22T06:36:00.812Z,1009.62
2017-05-22T06:37:14.855Z,1009.57
2017-05-22T06:38:28.961Z,1009.59
2017-05-22T06:39:42.887Z,1009.64
2017-05-22T06:40:56.910Z,1009.66
2017-05-22T06:42:10.853Z,1009.63
2017-05-22T06:43:24.931Z,1009.61
2017-05-22T06:44:38.942Z,1009.63
2017-05-22T06:45:52.990Z,1009.61
2017-05-22T06:47:07.411Z,1009.6
2017-05-22T06:48:21.970Z,1009.59
2017-05-22T06:49:35.605Z,1009.59
2017-05-22T06:50:50.356Z,1009.56
2017-05-22T06:52:03.974Z,1009.6
2017-05-22T06:53:18.465Z,1009.61
2017-05-22T06:54:32.833Z,1009.72
2017-05-22T06:55:47.587Z,1009.62
2017-05-22T06:57:02.161Z,1009.6
2017-05-22T06:58:15.883Z,1009.57
2017-05-22T06:59:29.952Z,1009.58
2017-05-22T07:00:43.989Z,1009.57
2017-05-22T07:01:57.638Z,1009.54
2017-05-22T07:03:11.615Z,1009.58
2017-05-22T07:04:25.739Z,1009.63
2017-05-22T07:05:39.396Z,1009.62
2017-05-22T07:06:53.193Z,1009.59
2017-05-22T07:08:06.850Z,1009.52
2017-05-22T07:09:21.622Z,1009.53
2017-05-22T07:10:36.101Z,1009.47
2017-05-22T07:11:49.925Z,1009.53
2017-05-22T07:13:03.937Z,1009.57
2017-05-22T07:14:17.546Z,1009.57
2017-05-22T07:15:32.000Z,1009.56
2017-05-22T07:16:46.456Z,1009.52
2017-05-22T07:18:00.396Z,1009.53
2017-05-22T07:19:14.014Z,1009.56
2017-05-22T07:20:28.032Z,1009.52
2017-05-22T07:21:42.211Z,1009.59
2017-05-22T07:22:56.042Z,1009.55
2017-05-22T07:24:10.047Z,1009.57
2017-05-22T07:25:24.448Z,1009.57
2017-05-22T07:26:38.214Z,1009.55
2017-05-22T07:27:52.289Z,1009.56
2017-05-22T07:29:05.927Z,1009.59
2017-05-22T07:30:19.949Z,1009.62
2017-05-22T07:31:33.567Z,1009.54
2017-05-22T07:32:47.396Z,1009.55
2017-05-22T07:34:01.749Z,1009.53
2017-05-22T07:35:15.454Z,1009.51
2017-05-22T07:36:29.446Z,1009.52
2017-05-22T07:37:43.224Z,1009.56
2017-05-22T07:38:57.205Z,1009.5
2017-05-22T07:40:11.207Z,1009.49
2017-05-22T07:41:25.235Z,1009.5
2017-05-22T07:42:38.935Z,1009.47
2017-05-22T07:43:53.331Z,1009.54
2017-05-22T07:45:07.003Z,1009.5
2017-05-22T07:46:21.231Z,1009.49
2017-05-22T07:47:35.749Z,1009.41
2017-05-22T07:48:49.642Z,1009.38
2017-05-22T07:50:03.596Z,1009.43
2017-05-22T07:51:17.570Z,1009.39
2017-05-22T07:52:32.058Z,1009.38
2017-05-22T07:53:46.100Z,1009.36
2017-05-22T07:55:00.557Z,1009.33
2017-05-22T07:56:15.383Z,1009.36
2017-05-22T07:57:29.039Z,1009.33
2017-05-22T07:58:43.075Z,1009.35
2017-05-22T07:59:56.727Z,1009.33
2017-05-22T08:01:10.462Z,1009.36
2017-05-22T08:02:24.444Z,1009.32
2017-05-22T08:03:38.811Z,1009.32
2017-05-22T08:04:53.844Z,1009.34
2017-05-22T08:06:09.721Z,1009.33
2017-05-22T08:07:23.629Z,1009.29
2017-05-22T08:08:37.910Z,1009.31
2017-05-22T08:09:52.598Z,1009.31
2017-05-22T08:11:06.506Z,1009.32
2017-05-22T08:12:21.156Z,1009.35
2017-05-22T08:13:35.341Z,1009.34
2017-05-22T08:14:49.947Z,1009.3
2017-05-22T08:16:04.139Z,1009.25
2017-05-22T08:17:18.176Z,1009.22
2017-05-22T08:18:33.966Z,1009.21
2017-05-22T08:19:49.722Z,1009.22
2017-05-22T08:21:03.825Z,1009.25
2017-05-22T08:22:17.867Z,1009.18
2017-05-22T08:23:32.998Z,1009.19
2017-05-22T08:24:46.866Z,1009.19
2017-05-22T08:26:00.704Z,1009.2
2017-05-22T08:27:14.735Z,1009.19
2017-05-22T08:28:28.360Z,1009.17
2017-05-22T08:29:42.466Z,1009.15
2017-05-22T08:30:56.705Z,1009.14
2017-05-22T08:32:10.701Z,1009.15
2017-05-22T08:33:24.775Z,1009.13
2017-05-22T08:34:39.072Z,1009.18
2017-05-22T08:35:53.777Z,1009.18
2017-05-22T08:37:07.936Z,1009.14
2017-05-22T08:38:22.636Z,1009.2
2017-05-22T08:39:36.651Z,1009.19
2017-05-22T08:40:50.337Z,1009.18
2017-05-22T08:42:05.386Z,1009.14
2017-05-22T08:43:19.946Z,1009.15
2017-05-22T08:44:34.054Z,1009.18
2017-05-22T08:45:48.012Z,1009.19
2017-05-22T08:47:07.613Z,1009.17
2017-05-22T08:48:23.276Z,1009.21
2017-05-22T08:49:41.440Z,1009.22
2017-05-22T08:51:01.004Z,1009.23
2017-05-22T08:52:18.008Z,1009.19
2017-05-22T08:53:35.714Z,1009.21
2017-05-22T08:54:51.755Z,1009.2
2017-05-22T08:56:10.256Z,1009.16
2017-05-22T08:57:28.904Z,1009.11
2017-05-22T08:58:46.831Z,1009.11
2017-05-22T09:00:04.377Z,1009.06
2017-05-22T09:01:23.973Z,1009.17
2017-05-22T09:02:40.990Z,1009.08
2017-05-22T09:03:55.538Z,1009.12
2017-05-22T09:05:13.271Z,1009.12
2017-05-22T09:06:33.135Z,1009.08
2017-05-22T09:07:48.175Z,1009.11
2017-05-22T09:09:02.684Z,1009.09
2017-05-22T09:10:18.755Z,1009.1
2017-05-22T09:11:32.586Z,1009.12
2017-05-22T09:12:46.662Z,1009.07
2017-05-22T09:14:01.214Z,1009.07
2017-05-22T09:15:15.576Z,1009.01
2017-05-22T09:16:29.583Z,1009
2017-05-22T09:17:43.373Z,1009.02
2017-05-22T09:21:19.704Z,1009.03
2017-05-22T09:22:34.019Z,1009
2017-05-22T09:23:48.021Z,1009
2017-05-22T09:25:01.963Z,1008.94
2017-05-22T09:26:15.660Z,1008.96
2017-05-22T09:27:29.358Z,1008.94
2017-05-22T09:28:43.393Z,1008.95
2017-05-22T09:30:03.685Z,1008.96
2017-05-22T09:31:18.058Z,1008.94
2017-05-22T09:32:31.790Z,1008.97
2017-05-22T09:33:45.985Z,1009
2017-05-22T09:34:59.960Z,1008.95
2017-05-22T09:36:13.994Z,1008.99
2017-05-22T09:37:28.110Z,1008.95
2017-05-22T09:38:41.835Z,1008.97
2017-05-22T09:39:56.103Z,1008.95
2017-05-22T09:41:11.172Z,1008.97
2017-05-22T09:42:25.018Z,1008.97
2017-05-22T09:43:39.142Z,1008.84
2017-05-22T09:44:53.104Z,1008.89
2017-05-22T09:46:06.860Z,1008.86
2017-05-22T09:47:20.684Z,1008.83
2017-05-22T09:48:34.384Z,1008.87
2017-05-22T09:49:48.416Z,1008.79
2017-05-22T09:51:02.423Z,1008.8
2017-05-22T09:52:20.600Z,1008.83
2017-05-22T09:53:34.261Z,1008.85
2017-05-22T09:54:47.965Z,1008.85
2017-05-22T09:56:01.926Z,1008.84
2017-05-22T09:57:16.212Z,1008.78
2017-05-22T09:58:29.945Z,1008.79
2017-05-22T09:59:44.103Z,1008.79
2017-05-22T10:00:58.190Z,1008.8
2017-05-22T10:02:12.781Z,1008.81
2017-05-22T10:03:26.764Z,1008.82
2017-05-22T10:04:40.777Z,1008.81
2017-05-22T10:05:54.779Z,1008.72
2017-05-22T10:07:08.619Z,1008.74
2017-05-22T10:08:22.862Z,1008.76
2017-05-22T10:09:36.524Z,1008.72
2017-05-22T10:10:50.206Z,1008.67
2017-05-22T10:12:03.908Z,1008.66
2017-05-22T10:13:18.168Z,1008.63
2017-05-22T10:14:32.232Z,1008.61
2017-05-22T10:15:46.235Z,1008.64
2017-05-22T10:17:00.243Z,1008.58
2017-05-22T10:18:13.973Z,1008.55
2017-05-22T10:19:27.874Z,1008.55
2017-05-22T10:20:41.490Z,1008.51
2017-05-22T10:21:55.256Z,1008.52
2017-05-22T10:23:12.003Z,1008.52
2017-05-22T10:24:25.864Z,1008.5
2017-05-22T10:25:39.523Z,1008.51
2017-05-22T10:26:53.197Z,1008.46
2017-05-22T10:28:07.561Z,1008.49
2017-05-22T10:29:21.243Z,1008.46
2017-05-22T10:30:34.881Z,1008.48
2017-05-22T10:31:49.503Z,1008.49
2017-05-22T10:33:03.191Z,1008.37
2017-05-22T10:34:16.854Z,1008.43
2017-05-22T10:35:30.817Z,1008.4
2017-05-22T10:36:44.492Z,1008.4
2017-05-22T10:37:58.161Z,1008.41
2017-05-22T10:39:12.107Z,1008.34
2017-05-22T10:40:26.117Z,1008.34
2017-05-22T10:41:39.804Z,1008.3
2017-05-22T10:42:53.807Z,1008.32
2017-05-22T10:44:07.818Z,1008.32
2017-05-22T10:45:21.778Z,1008.3
2017-05-22T10:46:35.705Z,1008.25
2017-05-22T10:47:49.338Z,1008.22
2017-05-22T10:49:03.264Z,1008.25
2017-05-22T10:50:17.507Z,1008.22
2017-05-22T10:51:31.859Z,1008.23
2017-05-22T10:52:45.477Z,1008.29
2017-05-22T10:53:59.459Z,1008.21
2017-05-22T10:55:13.742Z,1008.2
2017-05-22T10:56:27.688Z,1008.2
2017-05-22T10:57:41.719Z,1008.13
2017-05-22T10:58:56.102Z,1008.14
2017-05-22T11:00:10.328Z,1008.11
2017-05-22T11:01:24.000Z,1008.14
2017-05-22T11:02:38.111Z,1008.11
2017-05-22T11:03:52.533Z,1008.06
2017-05-22T11:05:06.180Z,1008.05
2017-05-22T11:06:19.790Z,1008.06
2017-05-22T11:07:33.701Z,1008.1
2017-05-22T11:08:47.708Z,1008.03
2017-05-22T11:10:01.534Z,1007.97
2017-05-22T11:11:15.266Z,1007.97
2017-05-22T11:12:28.939Z,1007.9
2017-05-22T11:13:42.595Z,1007.89
2017-05-22T11:14:56.874Z,1007.9
2017-05-22T11:16:11.570Z,1007.9
2017-05-22T11:17:26.080Z,1007.86
2017-05-22T11:18:39.960Z,1007.88
2017-05-22T11:19:54.021Z,1007.87
2017-05-22T11:21:08.694Z,1007.86
2017-05-22T11:22:22.468Z,1007.83
2017-05-22T11:23:36.151Z,1007.84
2017-05-22T11:24:49.793Z,1007.76
2017-05-22T11:26:03.530Z,1007.75
2017-05-22T11:27:17.504Z,1007.76
2017-05-22T11:28:31.419Z,1007.75
2017-05-22T11:29:45.449Z,1007.68
2017-05-22T11:32:27.630Z,1007.68
2017-05-22T11:33:41.594Z,1007.69
2017-05-22T11:34:55.352Z,1007.7
2017-05-22T11:36:09.426Z,1007.72
2017-05-22T11:37:23.352Z,1007.66
2017-05-22T11:38:37.057Z,1007.69
2017-05-22T11:39:51.394Z,1007.65
2017-05-22T11:41:05.643Z,1007.59
2017-05-22T11:42:20.169Z,1007.71
2017-05-22T11:43:33.901Z,1007.66
2017-05-22T11:44:47.682Z,1007.62
2017-05-22T11:46:01.678Z,1007.63
2017-05-22T11:47:15.966Z,1007.64
2017-05-22T11:48:30.036Z,1007.63
2017-05-22T11:49:43.721Z,1007.59
2017-05-22T11:50:57.374Z,1007.59
2017-05-22T11:52:11.369Z,1007.56
2017-05-22T11:53:25.015Z,1007.63
2017-05-22T11:54:39.083Z,1007.69
2017-05-22T11:55:52.710Z,1007.58
2017-05-22T11:57:06.534Z,1007.57
2017-05-22T11:58:20.543Z,1007.49
2017-05-22T11:59:34.195Z,1007.52
2017-05-22T12:00:48.077Z,1007.5
2017-05-22T12:02:02.676Z,1007.6
2017-05-22T12:03:18.783Z,1007.58
2017-05-22T12:04:33.100Z,1007.48
2017-05-22T12:05:47.798Z,1007.45
2017-05-22T12:07:01.470Z,1007.43
2017-05-22T12:08:15.449Z,1007.42
2017-05-22T12:09:30.119Z,1007.37
2017-05-22T12:10:44.225Z,1007.35
2017-05-22T12:11:58.009Z,1007.36
2017-05-22T12:13:11.644Z,1007.43
2017-05-22T12:14:26.032Z,1007.44
2017-05-22T12:15:39.795Z,1007.39
2017-05-22T12:16:54.041Z,1007.42
2017-05-22T12:18:08.380Z,1007.44
2017-05-22T12:19:22.775Z,1007.37
2017-05-22T12:20:36.811Z,1007.35
2017-05-22T12:21:51.225Z,1007.33
2017-05-22T12:23:06.161Z,1007.27
2017-05-22T12:24:19.803Z,1007.35
2017-05-22T12:25:33.742Z,1007.28
2017-05-22T12:26:47.974Z,1007.33
2017-05-22T12:28:01.665Z,1007.23
2017-05-22T12:29:16.230Z,1007.22
2017-05-22T12:30:30.200Z,1007.15
2017-05-22T12:31:44.483Z,1007.25
2017-05-22T12:32:58.802Z,1007.26
2017-05-22T12:34:12.570Z,1007.26
2017-05-22T12:35:26.492Z,1007.19
2017-05-22T12:36:40.425Z,1007.19
2017-05-22T12:37:54.947Z,1007.19
2017-05-22T12:39:08.917Z,1007.17
2017-05-22T12:40:23.232Z,1007.14
2017-05-22T12:41:37.585Z,1007.2
2017-05-22T12:42:51.295Z,1007.18
2017-05-22T12:44:04.917Z,1007.14
2017-05-22T12:45:18.527Z,1007.16
2017-05-22T12:46:32.167Z,1007.11
2017-05-22T12:47:46.768Z,1007.16
2017-05-22T12:49:00.610Z,1007.17
2017-05-22T12:50:14.228Z,1007.14
2017-05-22T12:51:27.888Z,1007.11
2017-05-22T12:52:41.958Z,1007.12
2017-05-22T12:53:56.512Z,1007.08
2017-05-22T12:55:10.310Z,1007.08
2017-05-22T12:56:23.897Z,1007.09
2017-05-22T12:57:37.945Z,1007.03
2017-05-22T12:58:51.642Z,1007.03
2017-05-22T13:00:06.252Z,1007.03
2017-05-22T13:01:21.408Z,1007.04
2017-05-22T13:02:35.048Z,1007.05
2017-05-22T13:03:48.844Z,1007
2017-05-22T13:05:02.645Z,1007
2017-05-22T13:06:16.675Z,1007
2017-05-22T13:07:30.410Z,1006.98
2017-05-22T13:08:44.427Z,1006.98
2017-05-22T13:09:58.360Z,1006.92
2017-05-22T13:11:12.269Z,1006.94
2017-05-22T13:12:26.273Z,1006.95
2017-05-22T13:13:40.014Z,1006.9
2017-05-22T13:14:53.718Z,1006.86
2017-05-22T13:16:07.395Z,1006.85
2017-05-22T13:17:21.453Z,1006.86
2017-05-22T13:18:35.397Z,1006.86
2017-05-22T13:19:49.340Z,1006.76
2017-05-22T13:21:03.725Z,1006.71
2017-05-22T13:22:17.700Z,1006.79
2017-05-22T13:23:31.395Z,1006.81
2017-05-22T13:24:51.681Z,1006.82
2017-05-22T13:26:05.987Z,1006.78
2017-05-22T13:27:20.046Z,1006.76
2017-05-22T13:28:35.115Z,1006.77
2017-05-22T13:29:49.203Z,1006.79
2017-05-22T13:31:03.222Z,1006.79
2017-05-22T13:32:16.864Z,1006.76
2017-05-22T13:33:30.974Z,1006.74
2017-05-22T13:34:44.975Z,1006.81
2017-05-22T13:35:59.052Z,1006.82
2017-05-22T13:37:13.381Z,1006.75
2017-05-22T13:38:27.163Z,1006.75
2017-05-22T13:39:40.848Z,1006.74
2017-05-22T13:40:55.139Z,1006.74
2017-05-22T13:42:08.910Z,1006.74
2017-05-22T13:43:23.339Z,1006.71
2017-05-22T13:44:37.085Z,1006.72
2017-05-22T13:45:50.796Z,1006.72
2017-05-22T13:47:04.530Z,1006.65
2017-05-22T13:48:18.174Z,1006.67
2017-05-22T13:49:32.140Z,1006.62
2017-05-22T13:50:45.759Z,1006.62
2017-05-22T13:51:59.333Z,1006.61
2017-05-22T13:53:13.678Z,1006.62
2017-05-22T13:54:27.461Z,1006.62
2017-05-22T13:55:41.489Z,1006.61
2017-05-22T13:56:55.887Z,1006.57
2017-05-22T13:58:10.363Z,1006.6
2017-05-22T13:59:24.381Z,1006.63
2017-05-22T14:00:38.518Z,1006.61
2017-05-22T14:01:53.013Z,1006.56
2017-05-22T14:03:07.697Z,1006.54
2017-05-22T14:04:21.363Z,1006.55
2017-05-22T14:05:35.011Z,1006.54
2017-05-22T14:06:49.468Z,1006.53
2017-05-22T14:08:03.551Z,1006.51
2017-05-22T14:09:17.591Z,1006.48
2017-05-22T14:10:31.645Z,1006.54
2017-05-22T14:11:45.254Z,1006.5
2017-05-22T14:12:58.938Z,1006.49
2017-05-22T14:14:13.249Z,1006.47
2017-05-22T14:15:27.610Z,1006.47
2017-05-22T14:16:42.360Z,1006.48
2017-05-22T14:17:56.071Z,1006.43
2017-05-22T14:19:10.043Z,1006.45
2017-05-22T14:20:24.598Z,1006.44
2017-05-22T14:21:38.389Z,1006.46
2017-05-22T14:22:52.044Z,1006.41
2017-05-22T14:24:06.371Z,1006.45
2017-05-22T14:25:20.315Z,1006.42
2017-05-22T14:26:34.744Z,1006.43
2017-05-22T14:27:49.175Z,1006.4
2017-05-22T14:29:03.237Z,1006.38
2017-05-22T14:30:17.608Z,1006.33
2017-05-22T14:31:31.990Z,1006.34
2017-05-22T14:32:46.099Z,1006.37
2017-05-22T14:33:59.798Z,1006.35
2017-05-22T14:35:14.160Z,1006.37
2017-05-22T14:36:28.240Z,1006.34
2017-05-22T14:37:41.867Z,1006.35
2017-05-22T14:38:55.862Z,1006.34
2017-05-22T14:40:10.355Z,1006.35
2017-05-22T14:41:24.058Z,1006.36
2017-05-22T14:45:28.112Z,1006.33
2017-05-22T14:46:43.616Z,1006.25
2017-05-22T14:48:02.864Z,1006.19
2017-05-22T14:49:17.046Z,1006.2
2017-05-22T14:50:31.780Z,1006.23
2017-05-22T14:51:47.378Z,1006.22
2017-05-22T14:53:03.009Z,1006.24
2017-05-22T14:54:18.422Z,1006.24
2017-05-22T14:55:35.324Z,1006.25
2017-05-22T14:56:51.513Z,1006.28
2017-05-22T14:58:08.268Z,1006.22
2017-05-22T14:59:27.967Z,1006.25
2017-05-22T15:00:47.853Z,1006.23
2017-05-22T15:02:06.214Z,1006.22
2017-05-22T15:03:20.401Z,1006.16
2017-05-22T15:04:34.190Z,1006.17
2017-05-22T15:05:48.864Z,1006.16
2017-05-22T15:07:02.511Z,1006.09
2017-05-22T15:08:19.234Z,1006.09